sensor_id;sensor_type;location;lat;lon;timestamp;P1;durP1;ratioP1;P2;durP2;ratioP2
31128;SDS011;17777;48.770;8.944;2023-12-04T00:01:20;14.52;;;8.25;;
31128;SDS011;17777;48.770;8.944;2023-12-04T00:03:46;12.15;;;8.18;;
31128;SDS011;17777;48.770;8.944;2023-12-04T00:06:12;13.85;;;8.95;;
31128;SDS011;17777;48.770;8.944;2023-12-04T00:08:39;12.43;;;8.15;;
31128;SDS011;17777;48.770;8.944;2023-12-04T00:11:05;13.35;;;7.97;;
31128;SDS011;17777;48.770;8.944;2023-12-04T00:13:32;11.32;;;7.40;;
31128;SDS011;17777;48.770;8.944;2023-12-04T00:15:58;12.93;;;8.48;;
31128;SDS011;17777;48.770;8.944;2023-12-04T00:18:24;12.82;;;7.85;;
31128;SDS011;17777;48.770;8.944;2023-12-04T00:20:50;11.10;;;7.28;;
31128;SDS011;17777;48.770;8.944;2023-12-04T00:23:17;12.93;;;7.70;;
31128;SDS011;17777;48.770;8.944;2023-12-04T00:25:43;15.55;;;9.05;;
31128;SDS011;17777;48.770;8.944;2023-12-04T00:28:09;11.82;;;7.50;;
31128;SDS011;17777;48.770;8.944;2023-12-04T00:30:34;13.10;;;7.53;;
31128;SDS011;17777;48.770;8.944;2023-12-04T00:33:00;11.85;;;7.70;;
31128;SDS011;17777;48.770;8.944;2023-12-04T00:35:26;13.13;;;8.15;;
31128;SDS011;17777;48.770;8.944;2023-12-04T00:37:52;13.50;;;8.13;;
31128;SDS011;17777;48.770;8.944;2023-12-04T00:40:17;12.60;;;8.23;;
31128;SDS011;17777;48.770;8.944;2023-12-04T00:42:43;14.48;;;8.70;;
31128;SDS011;17777;48.770;8.944;2023-12-04T00:45:09;14.23;;;7.78;;
31128;SDS011;17777;48.770;8.944;2023-12-04T00:47:35;12.82;;;8.18;;
31128;SDS011;17777;48.770;8.944;2023-12-04T00:50:01;14.52;;;8.00;;
31128;SDS011;17777;48.770;8.944;2023-12-04T00:52:26;12.75;;;8.05;;
31128;SDS011;17777;48.770;8.944;2023-12-04T00:54:52;15.00;;;8.65;;
31128;SDS011;17777;48.770;8.944;2023-12-04T00:57:18;10.85;;;7.68;;
31128;SDS011;17777;48.770;8.944;2023-12-04T00:59:44;13.95;;;8.85;;
31128;SDS011;17777;48.770;8.944;2023-12-04T01:02:10;14.35;;;7.78;;
31128;SDS011;17777;48.770;8.944;2023-12-04T01:04:36;10.48;;;7.22;;
31128;SDS011;17777;48.770;8.944;2023-12-04T01:07:06;11.90;;;7.25;;
31128;SDS011;17777;48.770;8.944;2023-12-04T01:09:34;13.70;;;7.55;;
31128;SDS011;17777;48.770;8.944;2023-12-04T01:12:01;12.68;;;7.55;;
31128;SDS011;17777;48.770;8.944;2023-12-04T01:14:27;11.95;;;7.90;;
31128;SDS011;17777;48.770;8.944;2023-12-04T01:16:52;12.10;;;7.97;;
31128;SDS011;17777;48.770;8.944;2023-12-04T01:19:18;11.68;;;6.93;;
31128;SDS011;17777;48.770;8.944;2023-12-04T01:21:44;11.80;;;7.47;;
31128;SDS011;17777;48.770;8.944;2023-12-04T01:24:10;11.65;;;7.88;;
31128;SDS011;17777;48.770;8.944;2023-12-04T01:26:36;10.75;;;7.38;;
31128;SDS011;17777;48.770;8.944;2023-12-04T01:29:02;12.32;;;7.85;;
31128;SDS011;17777;48.770;8.944;2023-12-04T01:31:28;12.05;;;7.65;;
31128;SDS011;17777;48.770;8.944;2023-12-04T01:33:53;10.63;;;7.03;;
31128;SDS011;17777;48.770;8.944;2023-12-04T01:36:19;10.77;;;7.57;;
31128;SDS011;17777;48.770;8.944;2023-12-04T01:38:45;9.98;;;6.78;;
31128;SDS011;17777;48.770;8.944;2023-12-04T01:41:11;10.98;;;7.20;;
31128;SDS011;17777;48.770;8.944;2023-12-04T01:43:37;11.57;;;7.22;;
31128;SDS011;17777;48.770;8.944;2023-12-04T01:46:03;10.95;;;6.95;;
31128;SDS011;17777;48.770;8.944;2023-12-04T01:48:29;11.82;;;6.55;;
31128;SDS011;17777;48.770;8.944;2023-12-04T01:50:55;10.45;;;6.57;;
31128;SDS011;17777;48.770;8.944;2023-12-04T01:53:23;10.55;;;6.43;;
31128;SDS011;17777;48.770;8.944;2023-12-04T01:55:49;10.45;;;6.28;;
31128;SDS011;17777;48.770;8.944;2023-12-04T01:58:15;10.63;;;6.57;;
31128;SDS011;17777;48.770;8.944;2023-12-04T02:00:46;11.35;;;6.95;;
31128;SDS011;17777;48.770;8.944;2023-12-04T02:03:12;10.68;;;6.70;;
31128;SDS011;17777;48.770;8.944;2023-12-04T02:05:38;9.00;;;6.03;;
31128;SDS011;17777;48.770;8.944;2023-12-04T02:08:05;12.73;;;7.25;;
31128;SDS011;17777;48.770;8.944;2023-12-04T02:10:31;9.68;;;6.30;;
31128;SDS011;17777;48.770;8.944;2023-12-04T02:12:56;9.70;;;6.07;;
31128;SDS011;17777;48.770;8.944;2023-12-04T02:15:23;12.82;;;7.00;;
31128;SDS011;17777;48.770;8.944;2023-12-04T02:17:49;10.02;;;6.13;;
31128;SDS011;17777;48.770;8.944;2023-12-04T02:20:15;14.00;;;7.38;;
31128;SDS011;17777;48.770;8.944;2023-12-04T02:22:42;12.07;;;7.22;;
31128;SDS011;17777;48.770;8.944;2023-12-04T02:25:08;11.52;;;7.18;;
31128;SDS011;17777;48.770;8.944;2023-12-04T02:27:40;11.70;;;6.68;;
31128;SDS011;17777;48.770;8.944;2023-12-04T02:30:14;12.70;;;7.65;;
31128;SDS011;17777;48.770;8.944;2023-12-04T02:32:46;13.35;;;7.10;;
31128;SDS011;17777;48.770;8.944;2023-12-04T02:35:16;11.32;;;7.25;;
31128;SDS011;17777;48.770;8.944;2023-12-04T02:37:47;10.93;;;6.90;;
31128;SDS011;17777;48.770;8.944;2023-12-04T02:40:14;11.45;;;6.85;;
31128;SDS011;17777;48.770;8.944;2023-12-04T02:42:40;10.50;;;6.68;;
31128;SDS011;17777;48.770;8.944;2023-12-04T02:45:06;10.07;;;6.60;;
31128;SDS011;17777;48.770;8.944;2023-12-04T02:47:33;10.00;;;5.75;;
31128;SDS011;17777;48.770;8.944;2023-12-04T02:49:59;11.55;;;6.50;;
31128;SDS011;17777;48.770;8.944;2023-12-04T02:52:24;11.10;;;6.65;;
31128;SDS011;17777;48.770;8.944;2023-12-04T02:54:50;10.95;;;6.47;;
31128;SDS011;17777;48.770;8.944;2023-12-04T02:57:16;11.20;;;6.13;;
31128;SDS011;17777;48.770;8.944;2023-12-04T02:59:42;9.73;;;6.45;;
31128;SDS011;17777;48.770;8.944;2023-12-04T03:02:08;11.43;;;6.72;;
31128;SDS011;17777;48.770;8.944;2023-12-04T03:04:34;10.30;;;6.55;;
31128;SDS011;17777;48.770;8.944;2023-12-04T03:07:00;10.85;;;6.78;;
31128;SDS011;17777;48.770;8.944;2023-12-04T03:09:26;11.52;;;6.95;;
31128;SDS011;17777;48.770;8.944;2023-12-04T03:11:52;13.73;;;8.52;;
31128;SDS011;17777;48.770;8.944;2023-12-04T03:14:17;11.45;;;7.90;;
31128;SDS011;17777;48.770;8.944;2023-12-04T03:16:44;10.80;;;7.00;;
31128;SDS011;17777;48.770;8.944;2023-12-04T03:19:10;10.50;;;6.68;;
31128;SDS011;17777;48.770;8.944;2023-12-04T03:21:35;10.15;;;6.45;;
31128;SDS011;17777;48.770;8.944;2023-12-04T03:24:01;10.23;;;6.25;;
31128;SDS011;17777;48.770;8.944;2023-12-04T03:26:27;10.98;;;6.82;;
31128;SDS011;17777;48.770;8.944;2023-12-04T03:28:53;11.60;;;6.95;;
31128;SDS011;17777;48.770;8.944;2023-12-04T03:31:21;10.15;;;6.50;;
31128;SDS011;17777;48.770;8.944;2023-12-04T03:33:47;9.80;;;6.05;;
31128;SDS011;17777;48.770;8.944;2023-12-04T03:36:13;8.68;;;6.38;;
31128;SDS011;17777;48.770;8.944;2023-12-04T03:38:39;11.05;;;7.13;;
31128;SDS011;17777;48.770;8.944;2023-12-04T03:41:05;9.70;;;6.70;;
31128;SDS011;17777;48.770;8.944;2023-12-04T03:43:41;9.95;;;6.47;;
31128;SDS011;17777;48.770;8.944;2023-12-04T03:46:07;10.15;;;6.45;;
31128;SDS011;17777;48.770;8.944;2023-12-04T03:48:33;10.70;;;6.57;;
31128;SDS011;17777;48.770;8.944;2023-12-04T03:50:59;10.63;;;6.45;;
31128;SDS011;17777;48.770;8.944;2023-12-04T03:53:25;10.82;;;6.55;;
31128;SDS011;17777;48.770;8.944;2023-12-04T03:55:52;10.98;;;6.53;;
31128;SDS011;17777;48.770;8.944;2023-12-04T03:58:18;8.90;;;5.53;;
31128;SDS011;17777;48.770;8.944;2023-12-04T04:00:43;10.73;;;6.32;;
31128;SDS011;17777;48.770;8.944;2023-12-04T04:03:09;11.82;;;6.40;;
31128;SDS011;17777;48.770;8.944;2023-12-04T04:05:35;11.63;;;6.63;;
31128;SDS011;17777;48.770;8.944;2023-12-04T04:08:01;10.18;;;7.00;;
31128;SDS011;17777;48.770;8.944;2023-12-04T04:10:27;11.90;;;6.68;;
31128;SDS011;17777;48.770;8.944;2023-12-04T04:12:53;8.55;;;5.75;;
31128;SDS011;17777;48.770;8.944;2023-12-04T04:15:19;9.88;;;5.95;;
31128;SDS011;17777;48.770;8.944;2023-12-04T04:17:45;10.82;;;6.22;;
31128;SDS011;17777;48.770;8.944;2023-12-04T04:20:11;11.23;;;6.60;;
31128;SDS011;17777;48.770;8.944;2023-12-04T04:22:37;9.95;;;6.82;;
31128;SDS011;17777;48.770;8.944;2023-12-04T04:25:06;10.07;;;6.10;;
31128;SDS011;17777;48.770;8.944;2023-12-04T04:27:32;12.40;;;6.57;;
31128;SDS011;17777;48.770;8.944;2023-12-04T04:29:59;10.80;;;6.03;;
31128;SDS011;17777;48.770;8.944;2023-12-04T04:32:25;10.23;;;6.60;;
31128;SDS011;17777;48.770;8.944;2023-12-04T04:34:51;9.05;;;6.05;;
31128;SDS011;17777;48.770;8.944;2023-12-04T04:37:17;9.18;;;5.93;;
31128;SDS011;17777;48.770;8.944;2023-12-04T04:39:43;9.60;;;5.90;;
31128;SDS011;17777;48.770;8.944;2023-12-04T04:42:09;9.70;;;5.93;;
31128;SDS011;17777;48.770;8.944;2023-12-04T04:44:34;10.73;;;6.63;;
31128;SDS011;17777;48.770;8.944;2023-12-04T04:47:00;9.82;;;6.22;;
31128;SDS011;17777;48.770;8.944;2023-12-04T04:49:26;9.93;;;6.20;;
31128;SDS011;17777;48.770;8.944;2023-12-04T04:51:52;9.15;;;5.90;;
31128;SDS011;17777;48.770;8.944;2023-12-04T04:54:17;9.32;;;5.57;;
31128;SDS011;17777;48.770;8.944;2023-12-04T04:56:43;9.05;;;5.90;;
31128;SDS011;17777;48.770;8.944;2023-12-04T04:59:09;8.68;;;6.07;;
31128;SDS011;17777;48.770;8.944;2023-12-04T05:01:35;9.35;;;5.55;;
31128;SDS011;17777;48.770;8.944;2023-12-04T05:04:01;8.82;;;5.68;;
31128;SDS011;17777;48.770;8.944;2023-12-04T05:06:28;7.35;;;5.18;;
31128;SDS011;17777;48.770;8.944;2023-12-04T05:08:53;9.27;;;5.35;;
31128;SDS011;17777;48.770;8.944;2023-12-04T05:11:19;8.98;;;5.20;;
31128;SDS011;17777;48.770;8.944;2023-12-04T05:13:45;8.75;;;5.57;;
31128;SDS011;17777;48.770;8.944;2023-12-04T05:16:11;8.30;;;5.20;;
31128;SDS011;17777;48.770;8.944;2023-12-04T05:18:38;8.13;;;5.40;;
31128;SDS011;17777;48.770;8.944;2023-12-04T05:21:08;7.97;;;5.68;;
31128;SDS011;17777;48.770;8.944;2023-12-04T05:23:35;8.40;;;5.68;;
31128;SDS011;17777;48.770;8.944;2023-12-04T05:26:04;8.88;;;5.78;;
31128;SDS011;17777;48.770;8.944;2023-12-04T05:28:32;9.18;;;5.78;;
31128;SDS011;17777;48.770;8.944;2023-12-04T05:30:59;10.07;;;6.50;;
31128;SDS011;17777;48.770;8.944;2023-12-04T05:33:25;9.00;;;5.95;;
31128;SDS011;17777;48.770;8.944;2023-12-04T05:35:51;10.02;;;5.85;;
31128;SDS011;17777;48.770;8.944;2023-12-04T05:38:17;9.93;;;6.05;;
31128;SDS011;17777;48.770;8.944;2023-12-04T05:40:43;9.40;;;5.93;;
31128;SDS011;17777;48.770;8.944;2023-12-04T05:43:09;11.10;;;6.10;;
31128;SDS011;17777;48.770;8.944;2023-12-04T05:45:35;8.70;;;6.05;;
31128;SDS011;17777;48.770;8.944;2023-12-04T05:48:00;10.88;;;6.72;;
31128;SDS011;17777;48.770;8.944;2023-12-04T05:50:26;9.10;;;5.72;;
31128;SDS011;17777;48.770;8.944;2023-12-04T05:52:52;11.35;;;7.18;;
31128;SDS011;17777;48.770;8.944;2023-12-04T05:55:18;10.75;;;6.63;;
31128;SDS011;17777;48.770;8.944;2023-12-04T05:57:45;10.55;;;6.20;;
31128;SDS011;17777;48.770;8.944;2023-12-04T06:00:11;9.88;;;6.15;;
31128;SDS011;17777;48.770;8.944;2023-12-04T06:02:38;9.30;;;5.88;;
31128;SDS011;17777;48.770;8.944;2023-12-04T06:05:05;8.80;;;5.82;;
31128;SDS011;17777;48.770;8.944;2023-12-04T06:07:32;9.40;;;6.45;;
31128;SDS011;17777;48.770;8.944;2023-12-04T06:09:59;8.45;;;5.78;;
31128;SDS011;17777;48.770;8.944;2023-12-04T06:12:25;7.75;;;5.60;;
31128;SDS011;17777;48.770;8.944;2023-12-04T06:14:50;7.90;;;5.20;;
31128;SDS011;17777;48.770;8.944;2023-12-04T06:17:17;9.48;;;5.55;;
31128;SDS011;17777;48.770;8.944;2023-12-04T06:19:43;9.23;;;5.65;;
31128;SDS011;17777;48.770;8.944;2023-12-04T06:22:08;8.38;;;5.30;;
31128;SDS011;17777;48.770;8.944;2023-12-04T06:24:34;8.63;;;5.40;;
31128;SDS011;17777;48.770;8.944;2023-12-04T06:27:01;7.35;;;4.90;;
31128;SDS011;17777;48.770;8.944;2023-12-04T06:29:27;8.43;;;5.68;;
31128;SDS011;17777;48.770;8.944;2023-12-04T06:31:53;8.20;;;5.15;;
31128;SDS011;17777;48.770;8.944;2023-12-04T06:34:19;7.95;;;5.53;;
31128;SDS011;17777;48.770;8.944;2023-12-04T06:36:46;8.23;;;5.22;;
31128;SDS011;17777;48.770;8.944;2023-12-04T06:39:12;7.63;;;5.28;;
31128;SDS011;17777;48.770;8.944;2023-12-04T06:41:39;7.30;;;4.70;;
31128;SDS011;17777;48.770;8.944;2023-12-04T06:44:06;7.70;;;5.38;;
31128;SDS011;17777;48.770;8.944;2023-12-04T06:46:34;8.15;;;5.40;;
31128;SDS011;17777;48.770;8.944;2023-12-04T06:49:04;9.00;;;5.28;;
31128;SDS011;17777;48.770;8.944;2023-12-04T06:51:34;7.65;;;5.25;;
31128;SDS011;17777;48.770;8.944;2023-12-04T06:53:59;7.22;;;5.10;;
31128;SDS011;17777;48.770;8.944;2023-12-04T06:56:25;8.23;;;5.10;;
31128;SDS011;17777;48.770;8.944;2023-12-04T06:58:51;6.88;;;5.03;;
31128;SDS011;17777;48.770;8.944;2023-12-04T07:01:17;7.28;;;5.13;;
31128;SDS011;17777;48.770;8.944;2023-12-04T07:03:42;8.70;;;5.00;;
31128;SDS011;17777;48.770;8.944;2023-12-04T07:06:08;7.63;;;5.32;;
31128;SDS011;17777;48.770;8.944;2023-12-04T07:08:34;9.25;;;5.30;;
31128;SDS011;17777;48.770;8.944;2023-12-04T07:11:00;8.35;;;5.90;;
31128;SDS011;17777;48.770;8.944;2023-12-04T07:13:26;7.03;;;4.95;;
31128;SDS011;17777;48.770;8.944;2023-12-04T07:15:51;9.07;;;5.38;;
31128;SDS011;17777;48.770;8.944;2023-12-04T07:18:17;9.13;;;6.57;;
31128;SDS011;17777;48.770;8.944;2023-12-04T07:20:43;9.13;;;5.90;;
31128;SDS011;17777;48.770;8.944;2023-12-04T07:23:08;8.00;;;5.22;;
31128;SDS011;17777;48.770;8.944;2023-12-04T07:25:34;8.68;;;5.38;;
31128;SDS011;17777;48.770;8.944;2023-12-04T07:28:00;9.02;;;5.30;;
31128;SDS011;17777;48.770;8.944;2023-12-04T07:30:26;8.85;;;5.57;;
31128;SDS011;17777;48.770;8.944;2023-12-04T07:32:52;7.53;;;5.15;;
31128;SDS011;17777;48.770;8.944;2023-12-04T07:35:18;8.02;;;5.20;;
31128;SDS011;17777;48.770;8.944;2023-12-04T07:37:44;6.85;;;4.95;;
31128;SDS011;17777;48.770;8.944;2023-12-04T07:40:10;8.13;;;5.03;;
31128;SDS011;17777;48.770;8.944;2023-12-04T07:42:37;9.07;;;5.15;;
31128;SDS011;17777;48.770;8.944;2023-12-04T07:45:03;8.05;;;5.22;;
31128;SDS011;17777;48.770;8.944;2023-12-04T07:47:30;10.60;;;6.00;;
31128;SDS011;17777;48.770;8.944;2023-12-04T07:49:55;7.32;;;5.43;;
31128;SDS011;17777;48.770;8.944;2023-12-04T07:52:21;7.13;;;4.80;;
31128;SDS011;17777;48.770;8.944;2023-12-04T07:54:47;8.32;;;5.32;;
31128;SDS011;17777;48.770;8.944;2023-12-04T07:57:13;9.82;;;5.95;;
31128;SDS011;17777;48.770;8.944;2023-12-04T07:59:39;8.07;;;5.32;;
31128;SDS011;17777;48.770;8.944;2023-12-04T08:02:05;8.25;;;5.40;;
31128;SDS011;17777;48.770;8.944;2023-12-04T08:04:31;8.25;;;5.47;;
31128;SDS011;17777;48.770;8.944;2023-12-04T08:06:56;8.48;;;5.55;;
31128;SDS011;17777;48.770;8.944;2023-12-04T08:09:22;8.98;;;6.00;;
31128;SDS011;17777;48.770;8.944;2023-12-04T08:11:48;8.82;;;5.25;;
31128;SDS011;17777;48.770;8.944;2023-12-04T08:14:14;6.45;;;4.88;;
31128;SDS011;17777;48.770;8.944;2023-12-04T08:16:41;7.85;;;5.05;;
31128;SDS011;17777;48.770;8.944;2023-12-04T08:19:06;8.93;;;5.28;;
31128;SDS011;17777;48.770;8.944;2023-12-04T08:21:32;9.07;;;5.43;;
31128;SDS011;17777;48.770;8.944;2023-12-04T08:23:58;6.43;;;4.72;;
31128;SDS011;17777;48.770;8.944;2023-12-04T08:26:24;8.60;;;5.53;;
31128;SDS011;17777;48.770;8.944;2023-12-04T08:28:51;7.85;;;5.03;;
31128;SDS011;17777;48.770;8.944;2023-12-04T08:31:17;9.00;;;6.03;;
31128;SDS011;17777;48.770;8.944;2023-12-04T08:33:43;8.85;;;5.22;;
31128;SDS011;17777;48.770;8.944;2023-12-04T08:36:10;8.13;;;5.30;;
31128;SDS011;17777;48.770;8.944;2023-12-04T08:38:37;6.60;;;4.68;;
31128;SDS011;17777;48.770;8.944;2023-12-04T08:41:03;7.35;;;5.25;;
31128;SDS011;17777;48.770;8.944;2023-12-04T08:43:29;7.10;;;4.75;;
31128;SDS011;17777;48.770;8.944;2023-12-04T08:45:55;7.78;;;5.20;;
31128;SDS011;17777;48.770;8.944;2023-12-04T08:48:21;6.20;;;4.75;;
31128;SDS011;17777;48.770;8.944;2023-12-04T08:50:47;8.57;;;5.55;;
31128;SDS011;17777;48.770;8.944;2023-12-04T08:53:13;8.32;;;5.50;;
31128;SDS011;17777;48.770;8.944;2023-12-04T08:55:39;8.20;;;5.13;;
31128;SDS011;17777;48.770;8.944;2023-12-04T08:58:05;8.13;;;5.20;;
31128;SDS011;17777;48.770;8.944;2023-12-04T09:00:31;8.05;;;4.90;;
31128;SDS011;17777;48.770;8.944;2023-12-04T09:02:58;9.15;;;5.82;;
31128;SDS011;17777;48.770;8.944;2023-12-04T09:05:23;8.98;;;5.80;;
31128;SDS011;17777;48.770;8.944;2023-12-04T09:07:49;8.45;;;5.55;;
31128;SDS011;17777;48.770;8.944;2023-12-04T09:10:15;7.70;;;5.15;;
31128;SDS011;17777;48.770;8.944;2023-12-04T09:12:42;8.80;;;5.70;;
31128;SDS011;17777;48.770;8.944;2023-12-04T09:15:08;8.05;;;5.60;;
31128;SDS011;17777;48.770;8.944;2023-12-04T09:17:33;9.00;;;5.93;;
31128;SDS011;17777;48.770;8.944;2023-12-04T09:19:59;10.32;;;6.13;;
31128;SDS011;17777;48.770;8.944;2023-12-04T09:22:25;11.10;;;7.03;;
31128;SDS011;17777;48.770;8.944;2023-12-04T09:24:51;9.10;;;5.97;;
31128;SDS011;17777;48.770;8.944;2023-12-04T09:27:17;9.85;;;6.05;;
31128;SDS011;17777;48.770;8.944;2023-12-04T09:29:42;9.30;;;5.80;;
31128;SDS011;17777;48.770;8.944;2023-12-04T09:32:08;8.60;;;6.13;;
31128;SDS011;17777;48.770;8.944;2023-12-04T09:34:35;10.20;;;6.47;;
31128;SDS011;17777;48.770;8.944;2023-12-04T09:37:01;10.13;;;6.00;;
31128;SDS011;17777;48.770;8.944;2023-12-04T09:39:27;8.18;;;5.78;;
31128;SDS011;17777;48.770;8.944;2023-12-04T09:41:53;10.52;;;6.60;;
31128;SDS011;17777;48.770;8.944;2023-12-04T09:44:21;9.48;;;6.32;;
31128;SDS011;17777;48.770;8.944;2023-12-04T09:46:49;9.90;;;6.55;;
31128;SDS011;17777;48.770;8.944;2023-12-04T09:49:17;9.93;;;6.20;;
31128;SDS011;17777;48.770;8.944;2023-12-04T09:51:43;12.13;;;6.57;;
31128;SDS011;17777;48.770;8.944;2023-12-04T09:54:10;10.50;;;7.05;;
31128;SDS011;17777;48.770;8.944;2023-12-04T09:56:37;9.60;;;6.70;;
31128;SDS011;17777;48.770;8.944;2023-12-04T09:59:04;9.82;;;5.53;;
31128;SDS011;17777;48.770;8.944;2023-12-04T10:01:32;8.38;;;5.63;;
31128;SDS011;17777;48.770;8.944;2023-12-04T10:03:59;9.98;;;6.32;;
31128;SDS011;17777;48.770;8.944;2023-12-04T10:06:28;8.30;;;5.53;;
31128;SDS011;17777;48.770;8.944;2023-12-04T10:08:55;11.35;;;5.85;;
31128;SDS011;17777;48.770;8.944;2023-12-04T10:11:25;7.75;;;5.55;;
31128;SDS011;17777;48.770;8.944;2023-12-04T10:13:52;7.13;;;5.32;;
31128;SDS011;17777;48.770;8.944;2023-12-04T10:16:32;7.72;;;5.18;;
31128;SDS011;17777;48.770;8.944;2023-12-04T10:19:16;9.57;;;5.57;;
31128;SDS011;17777;48.770;8.944;2023-12-04T10:21:48;7.65;;;5.95;;
31128;SDS011;17777;48.770;8.944;2023-12-04T10:24:26;8.90;;;5.80;;
31128;SDS011;17777;48.770;8.944;2023-12-04T10:26:59;10.35;;;6.03;;
31128;SDS011;17777;48.770;8.944;2023-12-04T10:29:29;8.50;;;5.45;;
31128;SDS011;17777;48.770;8.944;2023-12-04T10:32:13;6.63;;;5.35;;
31128;SDS011;17777;48.770;8.944;2023-12-04T10:34:43;7.88;;;5.38;;
31128;SDS011;17777;48.770;8.944;2023-12-04T10:37:09;7.03;;;5.10;;
31128;SDS011;17777;48.770;8.944;2023-12-04T10:39:45;6.93;;;5.13;;
31128;SDS011;17777;48.770;8.944;2023-12-04T10:42:24;10.02;;;6.18;;
31128;SDS011;17777;48.770;8.944;2023-12-04T10:44:57;8.93;;;5.78;;
31128;SDS011;17777;48.770;8.944;2023-12-04T10:47:24;7.05;;;5.05;;
31128;SDS011;17777;48.770;8.944;2023-12-04T10:49:51;8.82;;;5.47;;
31128;SDS011;17777;48.770;8.944;2023-12-04T10:52:17;7.68;;;5.75;;
31128;SDS011;17777;48.770;8.944;2023-12-04T10:54:47;7.38;;;5.30;;
31128;SDS011;17777;48.770;8.944;2023-12-04T10:57:16;7.70;;;5.57;;
31128;SDS011;17777;48.770;8.944;2023-12-04T10:59:52;7.63;;;5.50;;
31128;SDS011;17777;48.770;8.944;2023-12-04T11:02:25;9.18;;;6.45;;
31128;SDS011;17777;48.770;8.944;2023-12-04T11:04:54;8.25;;;6.13;;
31128;SDS011;17777;48.770;8.944;2023-12-04T11:07:25;9.07;;;6.50;;
31128;SDS011;17777;48.770;8.944;2023-12-04T11:09:52;6.00;;;4.20;;
31128;SDS011;17777;48.770;8.944;2023-12-04T11:12:21;8.88;;;5.55;;
31128;SDS011;17777;48.770;8.944;2023-12-04T11:14:56;7.43;;;5.57;;
31128;SDS011;17777;48.770;8.944;2023-12-04T11:17:27;6.60;;;5.13;;
31128;SDS011;17777;48.770;8.944;2023-12-04T11:20:02;6.50;;;4.93;;
31128;SDS011;17777;48.770;8.944;2023-12-04T11:22:36;8.27;;;5.32;;
31128;SDS011;17777;48.770;8.944;2023-12-04T11:25:05;6.15;;;4.50;;
31128;SDS011;17777;48.770;8.944;2023-12-04T11:27:33;6.53;;;4.78;;
31128;SDS011;17777;48.770;8.944;2023-12-04T11:29:59;8.15;;;5.50;;
31128;SDS011;17777;48.770;8.944;2023-12-04T11:32:28;6.90;;;5.07;;
31128;SDS011;17777;48.770;8.944;2023-12-04T11:34:55;6.53;;;4.72;;
31128;SDS011;17777;48.770;8.944;2023-12-04T11:37:22;7.68;;;5.35;;
31128;SDS011;17777;48.770;8.944;2023-12-04T11:39:51;7.18;;;4.53;;
31128;SDS011;17777;48.770;8.944;2023-12-04T11:42:22;7.10;;;4.93;;
31128;SDS011;17777;48.770;8.944;2023-12-04T11:44:49;7.97;;;5.30;;
31128;SDS011;17777;48.770;8.944;2023-12-04T11:47:22;6.10;;;5.03;;
31128;SDS011;17777;48.770;8.944;2023-12-04T11:49:48;7.78;;;4.95;;
31128;SDS011;17777;48.770;8.944;2023-12-04T11:52:14;8.93;;;5.80;;
31128;SDS011;17777;48.770;8.944;2023-12-04T11:54:56;6.97;;;5.10;;
31128;SDS011;17777;48.770;8.944;2023-12-04T11:57:32;8.13;;;5.60;;
31128;SDS011;17777;48.770;8.944;2023-12-04T12:02:48;7.82;;;5.55;;
31128;SDS011;17777;48.770;8.944;2023-12-04T12:05:17;7.20;;;4.95;;
31128;SDS011;17777;48.770;8.944;2023-12-04T12:07:44;8.23;;;5.75;;
31128;SDS011;17777;48.770;8.944;2023-12-04T12:10:11;8.98;;;5.90;;
31128;SDS011;17777;48.770;8.944;2023-12-04T12:12:40;8.40;;;5.50;;
31128;SDS011;17777;48.770;8.944;2023-12-04T12:15:10;9.43;;;5.65;;
31128;SDS011;17777;48.770;8.944;2023-12-04T12:17:37;6.82;;;4.93;;
31128;SDS011;17777;48.770;8.944;2023-12-04T12:20:08;7.72;;;4.60;;
31128;SDS011;17777;48.770;8.944;2023-12-04T12:22:36;6.68;;;4.85;;
31128;SDS011;17777;48.770;8.944;2023-12-04T12:25:12;7.53;;;5.65;;
31128;SDS011;17777;48.770;8.944;2023-12-04T12:27:39;8.02;;;4.97;;
31128;SDS011;17777;48.770;8.944;2023-12-04T12:30:05;9.70;;;5.57;;
31128;SDS011;17777;48.770;8.944;2023-12-04T12:32:33;7.32;;;5.22;;
31128;SDS011;17777;48.770;8.944;2023-12-04T12:34:59;8.57;;;5.25;;
31128;SDS011;17777;48.770;8.944;2023-12-04T12:37:25;8.88;;;6.13;;
31128;SDS011;17777;48.770;8.944;2023-12-04T12:39:51;8.15;;;5.55;;
31128;SDS011;17777;48.770;8.944;2023-12-04T12:42:27;7.07;;;5.13;;
31128;SDS011;17777;48.770;8.944;2023-12-04T12:44:54;9.40;;;5.47;;
31128;SDS011;17777;48.770;8.944;2023-12-04T12:47:21;8.70;;;4.47;;
31128;SDS011;17777;48.770;8.944;2023-12-04T12:49:48;7.57;;;4.68;;
31128;SDS011;17777;48.770;8.944;2023-12-04T12:52:14;7.82;;;4.63;;
31128;SDS011;17777;48.770;8.944;2023-12-04T12:54:41;7.25;;;4.97;;
31128;SDS011;17777;48.770;8.944;2023-12-04T12:57:08;4.97;;;4.05;;
31128;SDS011;17777;48.770;8.944;2023-12-04T12:59:36;7.30;;;5.10;;
31128;SDS011;17777;48.770;8.944;2023-12-04T13:02:06;7.22;;;4.60;;
31128;SDS011;17777;48.770;8.944;2023-12-04T13:04:41;6.97;;;5.00;;
31128;SDS011;17777;48.770;8.944;2023-12-04T13:07:09;7.65;;;5.18;;
31128;SDS011;17777;48.770;8.944;2023-12-04T13:09:35;5.63;;;4.28;;
31128;SDS011;17777;48.770;8.944;2023-12-04T13:12:02;6.97;;;5.13;;
31128;SDS011;17777;48.770;8.944;2023-12-04T13:14:29;8.07;;;4.90;;
31128;SDS011;17777;48.770;8.944;2023-12-04T13:16:55;9.35;;;5.38;;
31128;SDS011;17777;48.770;8.944;2023-12-04T13:19:24;7.85;;;5.10;;
31128;SDS011;17777;48.770;8.944;2023-12-04T13:21:50;5.95;;;4.38;;
31128;SDS011;17777;48.770;8.944;2023-12-04T13:24:16;5.88;;;4.38;;
31128;SDS011;17777;48.770;8.944;2023-12-04T13:26:43;5.40;;;4.30;;
31128;SDS011;17777;48.770;8.944;2023-12-04T13:29:10;6.50;;;4.82;;
31128;SDS011;17777;48.770;8.944;2023-12-04T13:31:42;6.80;;;4.60;;
31128;SDS011;17777;48.770;8.944;2023-12-04T13:34:08;7.00;;;4.72;;
31128;SDS011;17777;48.770;8.944;2023-12-04T13:36:34;15.88;;;5.38;;
31128;SDS011;17777;48.770;8.944;2023-12-04T13:39:01;8.20;;;5.10;;
31128;SDS011;17777;48.770;8.944;2023-12-04T13:41:29;6.38;;;4.47;;
31128;SDS011;17777;48.770;8.944;2023-12-04T13:44:14;6.20;;;4.20;;
31128;SDS011;17777;48.770;8.944;2023-12-04T13:46:40;6.13;;;4.53;;
31128;SDS011;17777;48.770;8.944;2023-12-04T13:49:06;7.22;;;4.55;;
31128;SDS011;17777;48.770;8.944;2023-12-04T13:51:32;7.43;;;4.53;;
31128;SDS011;17777;48.770;8.944;2023-12-04T13:53:59;5.72;;;3.97;;
31128;SDS011;17777;48.770;8.944;2023-12-04T13:56:34;7.22;;;4.60;;
31128;SDS011;17777;48.770;8.944;2023-12-04T13:59:09;5.72;;;4.28;;
31128;SDS011;17777;48.770;8.944;2023-12-04T14:01:43;6.97;;;4.82;;
31128;SDS011;17777;48.770;8.944;2023-12-04T14:04:09;7.22;;;4.55;;
31128;SDS011;17777;48.770;8.944;2023-12-04T14:06:35;6.30;;;4.10;;
31128;SDS011;17777;48.770;8.944;2023-12-04T14:09:01;6.97;;;3.88;;
31128;SDS011;17777;48.770;8.944;2023-12-04T14:11:30;5.18;;;3.33;;
31128;SDS011;17777;48.770;8.944;2023-12-04T14:13:56;3.80;;;3.15;;
31128;SDS011;17777;48.770;8.944;2023-12-04T14:16:22;4.35;;;2.72;;
31128;SDS011;17777;48.770;8.944;2023-12-04T14:18:47;3.53;;;2.90;;
31128;SDS011;17777;48.770;8.944;2023-12-04T14:21:13;4.32;;;3.30;;
31128;SDS011;17777;48.770;8.944;2023-12-04T14:23:39;4.70;;;3.83;;
31128;SDS011;17777;48.770;8.944;2023-12-04T14:26:04;6.78;;;4.13;;
31128;SDS011;17777;48.770;8.944;2023-12-04T14:28:31;6.40;;;3.92;;
31128;SDS011;17777;48.770;8.944;2023-12-04T14:30:57;5.57;;;4.05;;
31128;SDS011;17777;48.770;8.944;2023-12-04T14:33:22;7.72;;;4.63;;
31128;SDS011;17777;48.770;8.944;2023-12-04T14:35:48;7.90;;;5.38;;
31128;SDS011;17777;48.770;8.944;2023-12-04T14:38:14;7.85;;;5.15;;
31128;SDS011;17777;48.770;8.944;2023-12-04T14:40:40;8.00;;;5.18;;
31128;SDS011;17777;48.770;8.944;2023-12-04T14:43:05;8.85;;;6.20;;
31128;SDS011;17777;48.770;8.944;2023-12-04T14:45:35;8.15;;;5.70;;